Russell, KS

2:24 AM CDT on April 29, 2017 (GMT -0500)
Canyon Road | | Change Station

Elev 1713 ft 38.93 °N, 98.91 °W | Updated 33 seconds ago

Rain
Rain
39.0 °F
Feels Like 32 °F
N
12.0
Wind Variable Wind from NNE

Today
High -- | Low -- °F
--% Chance of Precip.
Yesterday
High -- | Low -- °F
Precip. -- in
Pressure 29.93 in
Visibility 5.0 miles
Clouds Overcast 600 ft
Windchill 32 °F
Dew Point 38 °F
Humidity 98%
Rainfall 0.17 in
Snow Depth Not available.
6:39 AM 8:26 PM
Waxing Crescent, 11% visible
METAR KRSL 290653Z AUTO 02015KT 5SM +RA BR OVC006 04/03 A2993 RMK AO2 PK WND 36027/0607 CIG 004V010 SLP135 P0019 T00390033
Pressure 29.93 in
Visibility 5.0 miles
Clouds Overcast 600 ft
Windchill 32 °F
Dew Point 38 °F
Humidity 98%
Rainfall 0.17 in
Snow Depth Not available.
6:39 AM 8:26 PM
Waxing Crescent, 11% visible
METAR KRSL 290653Z AUTO 02015KT 5SM +RA BR OVC006 04/03 A2993 RMK AO2 PK WND 36027/0607 CIG 004V010 SLP135 P0019 T00390033

Get Severe Weather Alerts

Thanks for signing up!

Be on the lookout for a verification email in your inbox.

You'll start receiving the daily forecast at 8 AM.

×

10-Day Weather Forecast

Almanac

Astronomy

Apr. 29, 2017 Rise Set
Actual Time
Civil Twilight
Nautical Twilight
Astronomical Twilight
Moon
Length of Visible Light
Length of Day
Tomorrow will be .
, % of the Moon is Illuminated

Today's Extremes

State Highs State Lows

Community

WunderPhotos

WunderBlog® & News

Nearby

Air Quality

  Air Quality AQ Index Pollutant
Not available.

Snow Depth

Station Depth Elevation

Earthquake Activity

City Distance Mag. Time & Date
Minimum magnitude displayed is 2.5.

Coastal Water Temperatures

Place Temperature

Stations

Nearby Weather Stations

Station Location Temp. Windchill Dew Point Humidity Wind Precip. Elev Updated Type
                   

Watches & Warnings

There are currently no watches in effect.